Bettendorf, IA (52722)

2:44 PM CDT on March 28, 2017 (GMT -0500)
Central Bettendorf | | Change Station

Elev 665 ft 41.53 °N, 90.50 °W | Updated 2 seconds ago

Overcast
Overcast
53.6 °F
Feels Like 53.6 °F
N
0.0
Wind Variable Wind from ESE
Gusts 0.0 mph

Today
High -- | Low -- °F
--% Chance of Precip.
Yesterday
High -- | Low -- °F
Precip. -- in
Pressure 30.14 in
Visibility 10.0 miles
Clouds Scattered Clouds 2100 ft
Mostly Cloudy 2900 ft
Overcast 3500 ft
Dew Point 25 °F
Humidity 33%
Rainfall 0.00 in
Snow Depth Not available.
6:51 AM 7:23 PM
New Moon, 1% visible
METAR KMLI 281852Z 07008KT 10SM SCT021 BKN029 OVC035 12/06 A3013 RMK AO2 SLP204 T01170061
Pressure 30.14 in
Visibility 10.0 miles
Clouds Scattered Clouds 2100 ft
Mostly Cloudy 2900 ft
Overcast 3500 ft
Dew Point 25 °F
Humidity 33%
Rainfall 0.00 in
Snow Depth Not available.
6:51 AM 7:23 PM
New Moon, 1% visible
METAR KMLI 281852Z 07008KT 10SM SCT021 BKN029 OVC035 12/06 A3013 RMK AO2 SLP204 T01170061

Get Severe Weather Alerts

Thanks for signing up!

Be on the lookout for a verification email in your inbox.

You'll start receiving the daily forecast at 8 AM.

×

10-Day Weather Forecast

Almanac

Astronomy

Mar. 28, 2017 Rise Set
Actual Time
Civil Twilight
Nautical Twilight
Astronomical Twilight
Moon
Length of Visible Light
Length of Day
Tomorrow will be .
, % of the Moon is Illuminated

Today's Extremes

State Highs State Lows

Community

WunderPhotos

Upload Photos

1,962,540 photos uploaded!

WunderBlog® & News

Nearby

Air Quality

  Air Quality AQ Index Pollutant
Not available.

Snow Depth

Station Depth Elevation

Earthquake Activity

City Distance Mag. Time & Date
Minimum magnitude displayed is 2.5.

Earthquake Activity

City Distance Mag. Time & Date
Minimum magnitude displayed is 2.5.

Coastal Water Temperatures

Place Temperature

Stations

Nearby Weather Stations

Station Location Temp. Windchill Dew Point Humidity Wind Precip. Elev Updated Type
                   

Watches & Warnings

There are currently no watches in effect.